createdAt,value
2023-09-02T00:01:45.792Z,28.73
2023-09-02T00:04:13.635Z,28.92
2023-09-02T00:06:42.803Z,27.67
2023-09-02T00:09:10.607Z,28.60
2023-09-02T00:11:38.400Z,28.85
2023-09-02T00:14:06.286Z,28.33
2023-09-02T00:16:34.088Z,28.55
2023-09-02T00:19:03.390Z,27.98
2023-09-02T00:21:31.140Z,27.17
2023-09-02T00:24:06.546Z,27.30
2023-09-02T00:26:35.324Z,27.98
2023-09-02T00:29:03.424Z,28.92
2023-09-02T00:31:31.814Z,27.55
2023-09-02T00:33:59.602Z,27.95
2023-09-02T00:36:27.718Z,28.42
2023-09-02T00:38:55.550Z,29.23
2023-09-02T00:41:29.315Z,29.13
2023-09-02T00:46:26.408Z,29.38
2023-09-02T00:48:55.260Z,29.60
2023-09-02T00:51:23.018Z,31.30
2023-09-02T00:53:50.718Z,29.73
2023-09-02T00:56:19.347Z,30.25
2023-09-02T00:58:48.492Z,30.95
2023-09-02T01:01:16.707Z,30.77
2023-09-02T01:03:45.426Z,30.30
2023-09-02T01:06:13.558Z,28.27
2023-09-02T01:08:41.392Z,26.08
2023-09-02T01:11:09.188Z,23.08
2023-09-02T01:13:36.925Z,23.08
2023-09-02T01:16:06.874Z,20.77
2023-09-02T01:18:36.970Z,25.80
2023-09-02T01:21:34.366Z,19.70
2023-09-02T01:24:31.451Z,21.20
2023-09-02T01:27:17.812Z,18.67
2023-09-02T01:29:54.217Z,18.30
2023-09-02T01:32:23.490Z,19.92
2023-09-02T01:34:52.106Z,16.77
2023-09-02T01:37:22.118Z,18.00
2023-09-02T01:39:52.221Z,18.55
2023-09-02T01:42:21.814Z,18.13
2023-09-02T01:44:50.086Z,17.38
2023-09-02T01:47:18.218Z,16.67
2023-09-02T01:49:47.783Z,18.45
2023-09-02T01:52:17.307Z,20.95
2023-09-02T01:54:45.876Z,21.33
2023-09-02T01:57:13.882Z,19.25
2023-09-02T01:59:44.089Z,20.55
2023-09-02T02:02:11.884Z,18.25
2023-09-02T02:04:44.488Z,18.23
2023-09-02T02:07:15.755Z,16.65
2023-09-02T02:09:49.150Z,15.23
2023-09-02T02:12:17.175Z,17.42
2023-09-02T02:14:47.140Z,19.85
2023-09-02T02:17:15.712Z,17.75
2023-09-02T02:19:45.239Z,18.13
2023-09-02T02:22:13.094Z,17.95
2023-09-02T02:24:40.874Z,15.43
2023-09-02T02:27:08.675Z,17.70
2023-09-02T02:29:36.467Z,15.10
2023-09-02T02:32:06.005Z,16.80
2023-09-02T02:34:34.097Z,15.98
2023-09-02T02:37:01.941Z,15.13
2023-09-02T02:39:29.748Z,16.38
2023-09-02T02:41:57.521Z,15.57
2023-09-02T02:44:25.304Z,16.13
2023-09-02T02:46:53.052Z,16.83
2023-09-02T02:49:22.154Z,16.50
2023-09-02T02:51:49.915Z,16.98
2023-09-02T02:54:17.940Z,17.23
2023-09-02T02:56:45.673Z,15.30
2023-09-02T02:59:13.464Z,16.08
2023-09-02T03:01:41.254Z,15.50
2023-09-02T03:04:10.081Z,16.33
2023-09-02T03:06:39.164Z,16.63
2023-09-02T03:09:07.239Z,17.00
2023-09-02T03:11:35.006Z,19.08
2023-09-02T03:14:02.784Z,19.00
2023-09-02T03:16:30.542Z,16.52
2023-09-02T03:18:58.294Z,17.95
2023-09-02T03:21:26.089Z,15.52
2023-09-02T03:23:55.185Z,14.02
2023-09-02T03:26:25.367Z,19.52
2023-09-02T03:28:54.461Z,15.57
2023-09-02T03:31:22.314Z,16.38
2023-09-02T03:33:50.137Z,15.55
2023-09-02T03:36:19.080Z,15.27
2023-09-02T03:38:46.904Z,17.65
2023-09-02T03:41:18.456Z,16.23
2023-09-02T03:43:46.966Z,15.45
2023-09-02T03:46:15.720Z,15.63
2023-09-02T03:48:43.518Z,16.38
2023-09-02T03:51:13.926Z,16.77
2023-09-02T03:53:42.768Z,17.20
2023-09-02T03:56:10.920Z,18.02
2023-09-02T03:58:40.688Z,16.55
2023-09-02T04:01:08.458Z,16.15
2023-09-02T04:03:37.434Z,16.52
2023-09-02T04:06:05.779Z,19.02
2023-09-02T04:08:35.279Z,18.70
2023-09-02T04:11:04.063Z,15.70
2023-09-02T04:13:32.397Z,14.77
2023-09-02T04:16:03.677Z,19.27
2023-09-02T04:18:32.553Z,15.90
2023-09-02T04:21:01.706Z,13.85
2023-09-02T04:23:29.455Z,18.45
2023-09-02T04:25:58.978Z,14.57
2023-09-02T04:28:26.764Z,18.23
2023-09-02T04:30:57.222Z,14.25
2023-09-02T04:33:26.573Z,17.00
2023-09-02T04:35:54.821Z,14.52
2023-09-02T04:38:22.678Z,13.15
2023-09-02T04:40:50.414Z,13.52
2023-09-02T04:43:19.560Z,17.20
2023-09-02T04:45:47.857Z,14.55
2023-09-02T04:48:16.990Z,18.88
2023-09-02T04:50:53.832Z,17.52
2023-09-02T04:53:21.855Z,13.40
2023-09-02T04:55:49.836Z,14.52
2023-09-02T04:58:17.954Z,13.15
2023-09-02T05:00:45.780Z,12.07
2023-09-02T05:03:13.542Z,13.70
2023-09-02T05:05:42.492Z,11.88
2023-09-02T05:08:11.648Z,10.70
2023-09-02T05:10:39.391Z,11.98
2023-09-02T05:13:07.154Z,11.95
2023-09-02T05:15:35.145Z,14.18
2023-09-02T05:18:03.058Z,12.80
2023-09-02T05:20:30.805Z,10.27
2023-09-02T05:22:58.565Z,13.82
2023-09-02T05:25:29.615Z,16.25
2023-09-02T05:27:57.349Z,13.60
2023-09-02T05:30:25.440Z,13.90
2023-09-02T05:32:53.232Z,11.98
2023-09-02T05:35:21.024Z,12.20
2023-09-02T05:37:48.783Z,14.75
2023-09-02T05:40:16.741Z,15.30
2023-09-02T05:42:45.846Z,10.70
2023-09-02T05:45:13.958Z,10.48
2023-09-02T05:47:41.699Z,9.75
2023-09-02T05:50:10.098Z,12.82
2023-09-02T05:52:37.875Z,11.55
2023-09-02T05:55:06.693Z,11.45
2023-09-02T05:57:34.627Z,12.35
2023-09-02T06:00:04.567Z,10.30
2023-09-02T06:02:34.530Z,9.55
2023-09-02T06:05:03.160Z,9.10
2023-09-02T06:07:30.938Z,9.00
2023-09-02T06:09:58.854Z,9.20
2023-09-02T06:12:26.618Z,15.68
2023-09-02T06:14:56.585Z,11.55
2023-09-02T06:17:31.717Z,11.75
2023-09-02T06:20:00.225Z,11.15
2023-09-02T06:22:28.159Z,11.00
2023-09-02T06:24:56.459Z,10.23
2023-09-02T06:27:24.482Z,9.80
2023-09-02T06:29:52.289Z,13.48
2023-09-02T06:32:20.049Z,15.27
2023-09-02T06:34:49.178Z,17.58
2023-09-02T06:37:16.994Z,11.48
2023-09-02T06:39:44.778Z,14.57
2023-09-02T06:42:12.730Z,10.85
2023-09-02T06:44:40.518Z,11.18
2023-09-02T06:47:08.252Z,10.13
2023-09-02T06:49:36.079Z,10.27
2023-09-02T06:52:05.606Z,11.38
2023-09-02T06:54:33.353Z,11.10
2023-09-02T06:57:01.111Z,11.10
2023-09-02T06:59:28.925Z,10.60
2023-09-02T07:01:56.706Z,10.13
2023-09-02T07:04:24.484Z,11.52
2023-09-02T07:06:52.255Z,9.38
2023-09-02T07:09:21.382Z,12.45
2023-09-02T07:11:49.213Z,10.02
2023-09-02T07:14:17.032Z,9.77
2023-09-02T07:16:44.789Z,11.02
2023-09-02T07:19:12.556Z,10.18
2023-09-02T07:21:40.343Z,10.73
2023-09-02T07:24:08.211Z,11.00
2023-09-02T07:26:37.571Z,11.20
2023-09-02T07:29:05.542Z,11.40
2023-09-02T07:31:33.395Z,11.25
2023-09-02T07:34:01.276Z,10.95
2023-09-02T07:36:28.074Z,11.27
2023-09-02T07:38:55.852Z,11.45
2023-09-02T07:41:23.617Z,14.63
2023-09-02T07:43:52.774Z,11.35
2023-09-02T07:46:20.678Z,11.57
2023-09-02T07:48:50.558Z,10.98
2023-09-02T07:51:18.463Z,13.30
2023-09-02T07:53:46.256Z,12.70
2023-09-02T07:56:14.058Z,12.60
2023-09-02T07:58:43.550Z,12.75
2023-09-02T08:01:12.734Z,13.07
2023-09-02T08:03:40.552Z,16.13
2023-09-02T08:06:09.782Z,16.60
2023-09-02T08:08:37.658Z,17.73
2023-09-02T08:11:05.724Z,22.75
2023-09-02T08:13:34.149Z,28.60
2023-09-02T08:16:05.580Z,28.10
2023-09-02T08:18:35.766Z,29.15
2023-09-02T08:21:03.654Z,33.38
2023-09-02T08:23:31.460Z,23.48
2023-09-02T08:25:59.223Z,23.80
2023-09-02T08:28:26.988Z,23.63
2023-09-02T08:30:54.801Z,20.95
2023-09-02T08:33:22.568Z,19.60
2023-09-02T08:35:51.653Z,20.17
2023-09-02T08:38:19.418Z,19.75
2023-09-02T08:40:47.901Z,22.35
2023-09-02T08:43:16.332Z,20.42
2023-09-02T08:45:47.520Z,20.92
2023-09-02T08:48:26.520Z,22.08
2023-09-02T08:50:57.387Z,21.98
2023-09-02T08:53:27.531Z,22.08
2023-09-02T08:55:56.438Z,22.65
2023-09-02T08:58:25.253Z,23.70
2023-09-02T09:00:53.972Z,23.48
2023-09-02T09:03:22.147Z,23.52
2023-09-02T09:05:52.122Z,23.13
2023-09-02T09:08:22.406Z,22.13
2023-09-02T09:10:51.067Z,23.23
2023-09-02T09:13:20.198Z,23.33
2023-09-02T09:15:49.029Z,22.90
2023-09-02T09:18:17.786Z,22.27
2023-09-02T09:20:46.100Z,20.77
2023-09-02T09:23:13.992Z,21.65
2023-09-02T09:25:45.979Z,20.42
2023-09-02T09:28:14.949Z,21.20
2023-09-02T09:30:43.416Z,22.73
2023-09-02T09:33:11.285Z,24.20
2023-09-02T09:35:39.271Z,23.25
2023-09-02T09:38:07.192Z,23.45
2023-09-02T09:40:36.466Z,24.38
2023-09-02T09:43:16.685Z,24.00
2023-09-02T09:45:51.292Z,23.90
2023-09-02T09:48:19.247Z,25.20
2023-09-02T09:50:47.068Z,25.48
2023-09-02T09:53:14.808Z,25.73
2023-09-02T09:55:42.724Z,24.70
2023-09-02T09:58:11.881Z,25.80
2023-09-02T10:00:40.037Z,26.88
2023-09-02T10:03:07.945Z,27.48
2023-09-02T10:05:36.087Z,26.40
2023-09-02T10:08:05.900Z,27.38
2023-09-02T10:10:37.289Z,28.50
2023-09-02T10:13:06.324Z,28.98
2023-09-02T10:15:35.644Z,28.98
2023-09-02T10:18:05.654Z,28.63
2023-09-02T10:20:36.325Z,28.15
2023-09-02T10:23:07.578Z,28.60
2023-09-02T10:25:45.275Z,28.15
2023-09-02T10:28:17.752Z,28.80
2023-09-02T10:30:49.824Z,30.05
2023-09-02T10:33:25.874Z,29.35
2023-09-02T10:36:00.697Z,30.45
2023-09-02T10:38:31.504Z,28.85
2023-09-02T10:41:09.421Z,29.65
2023-09-02T10:43:37.790Z,28.75
2023-09-02T10:46:07.373Z,28.30
2023-09-02T10:48:36.078Z,27.95
2023-09-02T10:51:04.939Z,29.17
2023-09-02T10:54:02.945Z,27.13
2023-09-02T10:56:33.117Z,27.65
2023-09-02T10:59:02.220Z,28.27
2023-09-02T11:01:43.904Z,27.85
2023-09-02T11:04:11.702Z,27.02
2023-09-02T11:06:39.606Z,27.73
2023-09-02T11:09:13.423Z,32.42
2023-09-02T11:12:12.184Z,26.52
2023-09-02T11:14:40.028Z,27.98
2023-09-02T11:17:32.006Z,26.30
2023-09-02T11:20:01.723Z,28.20
2023-09-02T11:22:48.513Z,27.40
2023-09-02T11:25:27.318Z,26.98
2023-09-02T11:27:56.626Z,26.73
2023-09-02T11:30:25.037Z,28.02
2023-09-02T11:32:55.846Z,27.67
2023-09-02T11:35:29.721Z,28.50
2023-09-02T11:40:29.307Z,24.90
2023-09-02T11:43:00.955Z,24.20
2023-09-02T11:45:31.578Z,24.88
2023-09-02T11:48:01.109Z,23.58
2023-09-02T11:50:29.259Z,23.80
2023-09-02T11:52:58.588Z,23.08
2023-09-02T11:55:27.276Z,24.10
2023-09-02T11:57:55.104Z,23.15
2023-09-02T12:00:24.438Z,23.00
2023-09-02T12:02:54.562Z,21.50
2023-09-02T12:05:26.155Z,21.70
2023-09-02T12:07:55.706Z,23.33
2023-09-02T12:10:27.238Z,19.63
2023-09-02T12:12:55.283Z,19.02
2023-09-02T12:15:23.056Z,17.42
2023-09-02T12:17:51.154Z,17.10
2023-09-02T12:20:19.464Z,17.45
2023-09-02T12:22:48.714Z,17.63
2023-09-02T12:25:18.955Z,18.45
2023-09-02T12:27:46.888Z,19.00
2023-09-02T12:30:15.346Z,18.23
2023-09-02T12:32:46.706Z,18.98
2023-09-02T12:35:15.337Z,17.83
2023-09-02T12:37:43.299Z,19.13
2023-09-02T12:40:14.250Z,19.00
2023-09-02T12:42:42.782Z,18.92
2023-09-02T12:45:11.281Z,17.85
2023-09-02T12:47:42.672Z,17.98
2023-09-02T12:50:11.590Z,17.63
2023-09-02T12:52:39.533Z,17.92
2023-09-02T12:55:08.566Z,16.67
2023-09-02T12:57:38.286Z,18.60
2023-09-02T13:00:07.919Z,16.25
2023-09-02T13:02:40.085Z,16.20
2023-09-02T13:05:08.340Z,16.63
2023-09-02T13:07:36.136Z,16.40
2023-09-02T13:10:04.648Z,17.90
2023-09-02T13:12:34.392Z,17.25
2023-09-02T13:15:04.025Z,16.63
2023-09-02T13:17:31.856Z,17.08
2023-09-02T13:19:59.807Z,14.95
2023-09-02T13:22:27.732Z,16.08
2023-09-02T13:24:55.808Z,15.65
2023-09-02T13:27:26.773Z,15.32
2023-09-02T13:29:54.721Z,15.02
2023-09-02T13:32:26.349Z,16.23
2023-09-02T13:34:56.642Z,13.93
2023-09-02T13:37:28.670Z,13.05
2023-09-02T13:39:58.729Z,13.98
2023-09-02T13:42:27.589Z,13.43
2023-09-02T13:45:09.189Z,14.63
2023-09-02T13:47:38.480Z,14.13
2023-09-02T13:50:11.682Z,13.90
2023-09-02T13:52:39.879Z,13.38
2023-09-02T13:55:08.390Z,14.07
2023-09-02T13:57:36.254Z,14.80
2023-09-02T14:00:11.995Z,14.57
2023-09-02T14:02:42.261Z,15.00
2023-09-02T14:05:15.484Z,15.95
2023-09-02T14:07:45.440Z,14.98
2023-09-02T14:10:14.274Z,14.35
2023-09-02T14:12:42.059Z,13.23
2023-09-02T14:15:10.249Z,14.57
2023-09-02T14:17:38.045Z,11.63
2023-09-02T14:20:08.343Z,10.52
2023-09-02T14:22:36.113Z,10.25
2023-09-02T14:25:04.011Z,9.98
2023-09-02T14:27:31.849Z,10.82
2023-09-02T14:29:59.582Z,9.85
2023-09-02T14:32:27.381Z,9.57
2023-09-02T14:34:55.146Z,11.10
2023-09-02T14:37:24.278Z,9.50
2023-09-02T14:39:52.018Z,10.38
2023-09-02T14:42:19.740Z,459.08
2023-09-02T14:44:47.574Z,478.65
2023-09-02T14:47:15.385Z,218.50
2023-09-02T14:49:43.197Z,297.08
2023-09-02T14:52:10.947Z,254.00
2023-09-02T14:54:47.292Z,119.53
2023-09-02T14:57:16.577Z,98.18
2023-09-02T14:59:47.221Z,110.82
2023-09-02T15:02:21.764Z,62.40
2023-09-02T15:04:50.451Z,51.10
2023-09-02T15:07:18.302Z,33.30
2023-09-02T15:09:48.450Z,36.42
2023-09-02T15:12:17.310Z,14.75
2023-09-02T15:14:50.600Z,17.73
2023-09-02T15:17:19.580Z,15.55
2023-09-02T15:19:50.545Z,22.13
2023-09-02T15:22:20.132Z,13.95
2023-09-02T15:24:49.617Z,13.35
2023-09-02T15:27:24.959Z,14.50
2023-09-02T15:29:53.053Z,11.70
2023-09-02T15:32:20.912Z,11.35
2023-09-02T15:34:50.222Z,12.10
2023-09-02T15:37:22.672Z,10.88
2023-09-02T15:39:55.318Z,11.38
2023-09-02T15:42:23.580Z,11.57
2023-09-02T15:44:51.355Z,13.82
2023-09-02T15:47:19.091Z,13.18
2023-09-02T15:49:46.870Z,39.88
2023-09-02T15:52:14.687Z,186.90
2023-09-02T15:54:42.459Z,51.42
2023-09-02T15:57:12.699Z,161.55
2023-09-02T15:59:40.513Z,56.80
2023-09-02T16:02:08.566Z,29.85
2023-09-02T16:04:36.384Z,26.67
2023-09-02T16:07:04.214Z,19.27
2023-09-02T16:09:32.023Z,23.55
2023-09-02T16:11:59.901Z,18.00
2023-09-02T16:14:29.150Z,17.02
2023-09-02T16:17:01.638Z,105.00
2023-09-02T16:19:29.440Z,40.22
2023-09-02T16:21:57.193Z,24.33
2023-09-02T16:24:23.966Z,19.95
2023-09-02T16:26:51.714Z,13.85
2023-09-02T16:29:19.468Z,15.18
2023-09-02T16:31:48.630Z,12.93
2023-09-02T16:34:16.546Z,19.58
2023-09-02T16:36:44.313Z,64.47
2023-09-02T16:39:12.540Z,23.48
2023-09-02T16:41:44.518Z,16.48
2023-09-02T16:44:13.662Z,22.17
2023-09-02T16:46:41.743Z,21.27
2023-09-02T16:49:16.221Z,11.60
2023-09-02T16:51:44.169Z,24.20
2023-09-02T16:54:12.657Z,17.52
2023-09-02T16:56:40.456Z,117.50
2023-09-02T16:59:08.925Z,86.45
2023-09-02T17:01:41.127Z,31.55
2023-09-02T17:04:09.046Z,37.10
2023-09-02T17:06:39.274Z,26.98
2023-09-02T17:09:07.104Z,16.48
2023-09-02T17:11:35.165Z,10.93
2023-09-02T17:14:04.387Z,15.27
2023-09-02T17:16:32.213Z,12.48
2023-09-02T17:19:01.449Z,7.70
2023-09-02T17:21:29.267Z,9.05
2023-09-02T17:23:58.893Z,9.13
2023-09-02T17:26:26.809Z,7.95
2023-09-02T17:28:54.663Z,8.95
2023-09-02T17:31:23.763Z,8.25
2023-09-02T17:33:51.621Z,6.97
2023-09-02T17:36:19.482Z,8.68
2023-09-02T17:38:47.380Z,8.38
2023-09-02T17:41:16.657Z,7.90
2023-09-02T17:43:44.783Z,9.05
2023-09-02T17:46:12.696Z,8.60
2023-09-02T17:48:40.810Z,9.85
2023-09-02T17:51:08.652Z,9.50
2023-09-02T17:53:36.441Z,9.90
2023-09-02T17:56:04.339Z,12.25
2023-09-02T17:58:33.626Z,10.18
2023-09-02T18:01:01.485Z,9.80
2023-09-02T18:03:29.819Z,9.23
2023-09-02T18:05:57.751Z,8.77
2023-09-02T18:08:34.301Z,8.52
2023-09-02T18:11:09.690Z,8.73
2023-09-02T18:13:38.870Z,7.65
2023-09-02T18:16:06.892Z,7.60
2023-09-02T18:18:35.092Z,10.32
2023-09-02T18:21:02.884Z,9.77
2023-09-02T18:23:30.748Z,9.70
2023-09-02T18:25:58.555Z,9.95
2023-09-02T18:28:26.458Z,8.07
2023-09-02T18:30:55.657Z,9.00
2023-09-02T18:33:23.509Z,9.05
2023-09-02T18:35:51.481Z,9.65
2023-09-02T18:38:19.563Z,8.98
2023-09-02T18:40:47.567Z,8.98
2023-09-02T18:43:15.408Z,9.13
2023-09-02T18:45:43.204Z,10.18
2023-09-02T18:48:12.367Z,10.05
2023-09-02T18:50:43.052Z,10.15
2023-09-02T18:53:11.208Z,10.65
2023-09-02T18:55:38.987Z,9.77
2023-09-02T18:58:08.264Z,9.75
2023-09-02T19:00:37.438Z,10.20
2023-09-02T19:03:05.970Z,9.85
2023-09-02T19:05:35.497Z,10.00
2023-09-02T19:08:03.272Z,10.00
2023-09-02T19:10:31.139Z,9.77
2023-09-02T19:12:58.958Z,10.45
2023-09-02T19:15:26.879Z,10.82
2023-09-02T19:17:54.744Z,10.18
2023-09-02T19:20:22.589Z,9.63
2023-09-02T19:22:51.876Z,9.15
2023-09-02T19:25:20.516Z,10.13
2023-09-02T19:27:49.320Z,9.63
2023-09-02T19:30:17.116Z,9.40
2023-09-02T19:32:44.964Z,8.88
2023-09-02T19:35:13.953Z,10.18
2023-09-02T19:37:45.511Z,9.73
2023-09-02T19:40:15.814Z,10.10
2023-09-02T19:42:47.987Z,11.00
2023-09-02T19:45:16.123Z,10.00
2023-09-02T19:47:44.010Z,9.68
2023-09-02T19:50:12.443Z,8.85
2023-09-02T19:52:40.281Z,8.07
2023-09-02T19:55:08.983Z,7.43
2023-09-02T19:57:38.068Z,8.40
2023-09-02T20:00:08.031Z,7.97
2023-09-02T20:02:35.789Z,8.30
2023-09-02T20:05:03.595Z,8.52
2023-09-02T20:07:31.342Z,8.00
2023-09-02T20:09:59.233Z,8.00
2023-09-02T20:12:30.447Z,8.18
2023-09-02T20:14:59.784Z,7.68
2023-09-02T20:17:27.514Z,7.47
2023-09-02T20:19:55.279Z,7.60
2023-09-02T20:22:23.015Z,7.35
2023-09-02T20:24:50.755Z,7.22
2023-09-02T20:27:19.816Z,6.78
2023-09-02T20:29:47.653Z,8.25
2023-09-02T20:32:16.806Z,6.95
2023-09-02T20:34:44.603Z,6.88
2023-09-02T20:37:13.731Z,6.90
2023-09-02T20:39:42.401Z,7.15
2023-09-02T20:42:10.294Z,7.60
2023-09-02T20:44:38.352Z,7.50
2023-09-02T20:47:06.382Z,7.07
2023-09-02T20:49:35.551Z,6.22
2023-09-02T20:52:07.332Z,6.55
2023-09-02T20:54:35.132Z,6.47
2023-09-02T20:57:02.896Z,6.20
2023-09-02T20:59:30.657Z,6.22
2023-09-02T21:01:58.425Z,6.00
2023-09-02T21:04:26.238Z,6.35
2023-09-02T21:06:55.425Z,7.20
2023-09-02T21:09:23.190Z,6.50
2023-09-02T21:11:51.069Z,6.38
2023-09-02T21:14:18.931Z,6.70
2023-09-02T21:16:46.775Z,6.78
2023-09-02T21:19:14.592Z,6.10
2023-09-02T21:21:43.672Z,6.10
2023-09-02T21:24:14.167Z,5.75
2023-09-02T21:26:42.433Z,6.80
2023-09-02T21:29:10.258Z,5.90
2023-09-02T21:31:38.067Z,6.55
2023-09-02T21:34:05.940Z,6.50
2023-09-02T21:36:33.833Z,6.30
2023-09-02T21:39:01.568Z,6.32
2023-09-02T21:41:30.743Z,6.50
2023-09-02T21:44:01.090Z,6.30
2023-09-02T21:46:28.884Z,6.38
2023-09-02T21:48:56.982Z,7.28
2023-09-02T21:51:24.748Z,6.45
2023-09-02T21:53:57.111Z,6.68
2023-09-02T21:56:24.999Z,6.95
2023-09-02T21:58:54.212Z,7.03
2023-09-02T22:01:22.113Z,7.82
2023-09-02T22:03:50.041Z,6.72
2023-09-02T22:06:17.938Z,7.18
2023-09-02T22:08:47.653Z,7.80
2023-09-02T22:11:17.223Z,7.15
2023-09-02T22:13:45.579Z,7.07
2023-09-02T22:16:15.844Z,6.93
2023-09-02T22:18:56.191Z,7.18
2023-09-02T22:21:28.102Z,6.80
2023-09-02T22:23:55.933Z,7.78
2023-09-02T22:26:23.689Z,7.55
2023-09-02T22:28:51.551Z,8.52
2023-09-02T22:31:20.732Z,8.65
2023-09-02T22:33:48.564Z,8.07
2023-09-02T22:36:17.044Z,9.05
2023-09-02T22:41:16.289Z,8.45
2023-09-02T22:43:44.100Z,9.10
2023-09-02T22:46:13.428Z,8.52
2023-09-02T22:48:42.954Z,8.63
2023-09-02T22:51:10.851Z,8.82
2023-09-02T22:53:40.004Z,9.20
2023-09-02T22:56:12.295Z,8.75
2023-09-02T22:58:40.114Z,9.05
2023-09-02T23:01:10.631Z,9.00
2023-09-02T23:03:38.489Z,8.43
2023-09-02T23:06:11.010Z,8.85
2023-09-02T23:08:39.175Z,8.73
2023-09-02T23:11:07.014Z,8.70
2023-09-02T23:13:34.827Z,8.93
2023-09-02T23:16:04.576Z,7.88
2023-09-02T23:18:32.897Z,8.57
2023-09-02T23:21:11.312Z,8.32
2023-09-02T23:23:39.597Z,8.25
2023-09-02T23:26:07.549Z,8.27
2023-09-02T23:28:35.910Z,8.38
2023-09-02T23:31:03.941Z,7.85
2023-09-02T23:33:33.626Z,8.82
2023-09-02T23:36:03.662Z,8.60
2023-09-02T23:38:33.500Z,9.18
2023-09-02T23:41:01.325Z,8.27
2023-09-02T23:43:29.280Z,8.43
2023-09-02T23:45:57.180Z,7.60
2023-09-02T23:48:25.219Z,7.88
2023-09-02T23:50:53.273Z,8.00
2023-09-02T23:53:21.069Z,7.18
2023-09-02T23:55:50.277Z,7.80
2023-09-02T23:58:18.486Z,7.57
